createdAt,value
2022-08-30T00:01:36.500Z,84.27
2022-08-30T00:04:41.413Z,84.05
2022-08-30T00:07:46.224Z,84.80
2022-08-30T00:10:54.633Z,84.61
2022-08-30T00:13:59.679Z,84.39
2022-08-30T00:17:04.389Z,84.33
2022-08-30T00:20:13.796Z,84.07
2022-08-30T00:23:20.038Z,83.94
2022-08-30T00:26:24.730Z,83.91
2022-08-30T00:29:29.431Z,83.07
2022-08-30T00:32:34.168Z,83.17
2022-08-30T00:35:40.964Z,82.61
2022-08-30T00:38:45.432Z,82.11
2022-08-30T00:41:51.597Z,81.82
2022-08-30T00:44:56.180Z,81.30
2022-08-30T00:48:01.403Z,81.03
2022-08-30T00:51:10.348Z,79.99
2022-08-30T00:54:16.008Z,80.26
2022-08-30T00:57:21.224Z,79.86
2022-08-30T01:00:25.897Z,79.39
2022-08-30T01:03:31.505Z,78.75
2022-08-30T01:06:37.272Z,78.16
2022-08-30T01:09:41.949Z,77.98
2022-08-30T01:12:47.421Z,77.30
2022-08-30T01:15:52.606Z,77.28
2022-08-30T01:18:58.826Z,77.71
2022-08-30T01:22:30.603Z,76.82
2022-08-30T01:25:38.156Z,76.58
2022-08-30T01:28:43.143Z,75.89
2022-08-30T01:31:47.544Z,76.68
2022-08-30T01:34:52.564Z,77.02
2022-08-30T01:37:57.506Z,75.93
2022-08-30T01:41:11.727Z,72.90
2022-08-30T01:44:16.741Z,66.44
2022-08-30T01:47:22.314Z,62.10
2022-08-30T01:50:26.959Z,63.77
2022-08-30T01:53:31.924Z,64.24
2022-08-30T01:56:36.851Z,62.42
2022-08-30T01:59:44.275Z,61.17
2022-08-30T02:02:49.786Z,63.79
2022-08-30T02:05:54.294Z,66.65
2022-08-30T02:08:59.549Z,67.37
2022-08-30T02:12:05.957Z,69.31
2022-08-30T02:15:11.270Z,69.98
2022-08-30T02:18:15.792Z,69.00
2022-08-30T02:21:20.565Z,70.11
2022-08-30T02:24:25.485Z,70.89
2022-08-30T02:27:30.127Z,69.15
2022-08-30T02:30:35.020Z,69.44
2022-08-30T02:33:40.463Z,70.19
2022-08-30T02:36:46.695Z,70.25
2022-08-30T02:39:51.287Z,71.34
2022-08-30T02:42:55.961Z,70.79
2022-08-30T02:46:02.145Z,70.50
2022-08-30T02:49:30.363Z,69.95
2022-08-30T02:52:31.837Z,70.17
2022-08-30T02:55:36.591Z,70.41
2022-08-30T02:58:43.390Z,70.97
2022-08-30T03:01:47.884Z,70.54
2022-08-30T03:04:52.111Z,70.44
2022-08-30T03:07:56.647Z,70.50
2022-08-30T03:11:03.567Z,69.44
2022-08-30T03:14:08.255Z,70.09
2022-08-30T03:17:15.561Z,69.19
2022-08-30T03:20:21.055Z,69.80
2022-08-30T03:23:25.797Z,68.71
2022-08-30T03:26:31.844Z,68.21
2022-08-30T03:29:37.214Z,67.82
2022-08-30T03:32:43.130Z,67.55
2022-08-30T03:35:47.842Z,68.32
2022-08-30T03:38:52.367Z,67.64
2022-08-30T03:41:57.438Z,67.91
2022-08-30T03:45:06.795Z,67.31
2022-08-30T03:48:11.720Z,68.31
2022-08-30T03:51:16.624Z,67.74
2022-08-30T03:54:23.422Z,67.83
2022-08-30T03:57:29.931Z,67.13
2022-08-30T04:00:36.196Z,66.77
2022-08-30T04:03:40.833Z,66.61
2022-08-30T04:06:45.691Z,65.82
2022-08-30T04:09:50.640Z,65.54
2022-08-30T04:12:55.259Z,64.94
2022-08-30T04:16:00.086Z,64.44
2022-08-30T04:19:05.251Z,64.28
2022-08-30T04:22:10.003Z,64.09
2022-08-30T04:25:15.998Z,63.51
2022-08-30T04:28:20.720Z,63.52
2022-08-30T04:31:25.345Z,63.35
2022-08-30T04:34:30.048Z,62.83
2022-08-30T04:37:34.501Z,62.01
2022-08-30T04:40:39.462Z,61.29
2022-08-30T04:43:47.629Z,61.01
2022-08-30T04:46:52.206Z,61.36
2022-08-30T04:49:56.717Z,60.89
2022-08-30T04:53:01.341Z,60.82
2022-08-30T04:56:17.514Z,60.50
2022-08-30T04:59:22.971Z,61.19
2022-08-30T05:02:27.655Z,60.43
2022-08-30T05:05:41.234Z,58.39
2022-08-30T05:08:47.047Z,59.56
2022-08-30T05:11:51.593Z,59.38
2022-08-30T05:14:58.381Z,59.71
2022-08-30T05:18:03.850Z,60.56
2022-08-30T05:21:20.616Z,61.65
2022-08-30T05:24:25.171Z,61.33
2022-08-30T05:27:30.109Z,62.60
2022-08-30T05:30:36.693Z,62.88
2022-08-30T05:33:41.425Z,62.99
2022-08-30T05:36:45.909Z,63.86
2022-08-30T05:39:51.650Z,65.17
2022-08-30T05:42:56.638Z,65.29
2022-08-30T05:46:07.706Z,64.31
2022-08-30T05:49:12.409Z,64.94
2022-08-30T05:52:19.055Z,65.43
2022-08-30T05:55:24.089Z,65.72
2022-08-30T05:58:28.892Z,66.35
2022-08-30T06:01:38.759Z,66.82
2022-08-30T06:04:43.298Z,67.31
2022-08-30T06:07:48.271Z,67.87
2022-08-30T06:10:53.008Z,68.36
2022-08-30T06:13:57.954Z,69.18
2022-08-30T06:17:02.663Z,69.79
2022-08-30T06:20:08.397Z,70.10
2022-08-30T06:23:12.944Z,73.12
2022-08-30T06:26:18.385Z,73.92
2022-08-30T06:29:23.344Z,73.59
2022-08-30T06:32:28.180Z,71.41
2022-08-30T06:35:38.278Z,70.14
2022-08-30T06:38:53.868Z,69.64
2022-08-30T06:41:58.516Z,68.46
2022-08-30T06:45:11.288Z,68.96
2022-08-30T06:48:16.399Z,69.03
2022-08-30T06:51:23.388Z,69.28
2022-08-30T06:54:28.262Z,69.89
2022-08-30T06:57:32.809Z,70.19
2022-08-30T07:00:37.534Z,69.29
2022-08-30T07:03:42.340Z,68.14
2022-08-30T07:06:47.053Z,67.46
2022-08-30T07:09:51.942Z,67.00
2022-08-30T07:12:56.434Z,68.02
2022-08-30T07:16:01.326Z,68.82
2022-08-30T07:19:07.587Z,69.37
2022-08-30T07:22:12.279Z,69.31
2022-08-30T07:25:19.863Z,69.81
2022-08-30T07:28:24.881Z,69.97
2022-08-30T07:31:30.716Z,70.37
2022-08-30T07:34:35.719Z,70.74
2022-08-30T07:37:40.200Z,70.67
2022-08-30T07:40:45.225Z,70.79
2022-08-30T07:43:49.986Z,71.36
2022-08-30T07:46:54.794Z,71.56
2022-08-30T07:50:01.840Z,71.99
2022-08-30T07:53:10.682Z,72.22
2022-08-30T07:56:16.916Z,72.54
2022-08-30T07:59:21.675Z,72.71
2022-08-30T08:02:26.391Z,73.02
2022-08-30T08:05:31.272Z,73.32
2022-08-30T08:08:36.472Z,73.78
2022-08-30T08:11:42.218Z,74.80
2022-08-30T08:14:47.074Z,74.62
2022-08-30T08:17:51.627Z,74.68
2022-08-30T08:21:00.044Z,75.45
2022-08-30T08:24:05.942Z,76.51
2022-08-30T08:27:13.347Z,77.35
2022-08-30T08:30:22.731Z,77.20
2022-08-30T08:33:27.704Z,77.27
2022-08-30T08:36:34.025Z,78.58
2022-08-30T08:39:38.546Z,79.04
2022-08-30T08:42:43.230Z,78.50
2022-08-30T08:46:27.488Z,78.78
2022-08-30T08:49:36.136Z,78.67
2022-08-30T08:53:16.411Z,81.07
2022-08-30T08:56:29.902Z,80.18
2022-08-30T08:59:36.722Z,80.39
2022-08-30T09:02:56.008Z,80.69
2022-08-30T09:06:05.318Z,81.29
2022-08-30T09:09:10.467Z,81.50
2022-08-30T09:12:15.743Z,82.32
2022-08-30T09:15:27.970Z,82.30
2022-08-30T09:18:54.687Z,82.27
2022-08-30T09:22:10.614Z,81.22
2022-08-30T09:25:15.501Z,83.31
2022-08-30T09:28:32.835Z,81.79
2022-08-30T09:32:01.318Z,82.27
2022-08-30T09:35:22.143Z,83.71
2022-08-30T09:38:35.080Z,83.84
2022-08-30T09:41:43.375Z,82.99
2022-08-30T09:44:48.132Z,83.36
2022-08-30T09:47:52.708Z,85.35
2022-08-30T09:51:22.343Z,87.10
2022-08-30T09:55:15.766Z,87.95
2022-08-30T09:58:46.263Z,89.53
2022-08-30T10:01:57.585Z,88.02
2022-08-30T10:05:13.457Z,88.79
2022-08-30T10:08:21.019Z,90.59
2022-08-30T10:11:40.071Z,93.02
2022-08-30T10:15:02.971Z,91.17
2022-08-30T10:18:19.704Z,89.69
2022-08-30T10:21:39.547Z,89.71
2022-08-30T10:24:51.742Z,88.90
2022-08-30T10:27:59.913Z,88.76
2022-08-30T10:31:14.971Z,89.45
2022-08-30T10:34:37.402Z,89.54
2022-08-30T10:38:07.690Z,89.97
2022-08-30T10:41:21.170Z,90.30
2022-08-30T10:44:32.934Z,90.21
2022-08-30T10:48:07.011Z,92.11
2022-08-30T10:51:37.540Z,93.29
2022-08-30T10:55:01.295Z,93.04
2022-08-30T10:58:08.285Z,93.39
2022-08-30T11:01:37.023Z,94.75
2022-08-30T11:05:19.607Z,94.25
2022-08-30T11:08:41.649Z,93.38
2022-08-30T11:12:11.974Z,93.56
2022-08-30T11:15:25.024Z,93.18
2022-08-30T11:18:51.215Z,93.17
2022-08-30T11:22:28.609Z,92.78
2022-08-30T11:25:57.703Z,93.51
2022-08-30T11:29:04.551Z,94.05
2022-08-30T11:32:14.028Z,94.60
2022-08-30T11:35:50.697Z,94.04
2022-08-30T11:38:55.765Z,93.66
2022-08-30T11:45:53.240Z,92.53
2022-08-30T11:49:13.998Z,92.74
2022-08-30T11:52:42.300Z,93.15
2022-08-30T11:56:17.361Z,94.58
2022-08-30T11:59:25.215Z,95.72
2022-08-30T12:02:49.910Z,97.36
2022-08-30T12:05:58.928Z,96.69
2022-08-30T12:09:08.245Z,96.67
2022-08-30T12:12:48.421Z,97.72
2022-08-30T12:16:01.970Z,97.42
2022-08-30T12:19:21.519Z,96.73
2022-08-30T12:22:28.018Z,96.72
2022-08-30T12:25:35.393Z,96.50
2022-08-30T12:28:42.150Z,96.44
2022-08-30T12:31:53.623Z,96.19
2022-08-30T12:35:01.487Z,96.39
2022-08-30T12:38:17.295Z,95.85
2022-08-30T12:41:23.492Z,96.17
2022-08-30T12:44:30.443Z,96.06
2022-08-30T12:47:59.045Z,95.63
2022-08-30T12:51:05.370Z,96.74
2022-08-30T12:54:23.208Z,96.62
2022-08-30T12:58:00.667Z,95.64
2022-08-30T13:01:37.996Z,95.01
2022-08-30T13:04:42.869Z,94.77
2022-08-30T13:07:47.828Z,94.78
2022-08-30T13:10:58.546Z,95.16
2022-08-30T13:14:32.328Z,96.44
2022-08-30T13:17:37.614Z,96.97
2022-08-30T13:20:42.056Z,97.07
2022-08-30T13:23:46.733Z,96.17
2022-08-30T13:26:52.260Z,96.29
2022-08-30T13:29:58.476Z,96.12
2022-08-30T13:33:03.401Z,96.55
2022-08-30T13:36:08.592Z,96.49
2022-08-30T13:39:13.364Z,98.31
2022-08-30T13:42:33.430Z,97.38
2022-08-30T13:45:42.634Z,97.06
2022-08-30T13:48:48.408Z,96.66
2022-08-30T13:52:19.088Z,96.68
2022-08-30T13:55:21.699Z,96.84
2022-08-30T13:58:26.607Z,97.15
2022-08-30T14:02:07.520Z,97.74
2022-08-30T14:04:59.774Z,97.79
2022-08-30T14:08:44.177Z,97.88
2022-08-30T14:11:36.387Z,97.08
2022-08-30T14:14:43.317Z,96.29
2022-08-30T14:17:48.504Z,96.28
2022-08-30T14:20:53.241Z,97.16
2022-08-30T14:23:59.749Z,96.69
2022-08-30T14:27:04.859Z,96.80
2022-08-30T14:30:10.534Z,96.99
2022-08-30T14:33:16.531Z,96.01
2022-08-30T14:36:21.206Z,96.15
2022-08-30T14:39:27.079Z,96.90
2022-08-30T14:42:32.612Z,97.56
2022-08-30T14:45:39.839Z,97.72
2022-08-30T14:48:44.714Z,98.40
2022-08-30T14:51:52.827Z,97.72
2022-08-30T14:55:03.743Z,97.62
2022-08-30T14:58:12.178Z,97.76
2022-08-30T15:01:16.858Z,97.61
2022-08-30T15:04:22.310Z,97.76
2022-08-30T15:07:26.881Z,98.18
2022-08-30T15:10:31.743Z,97.30
2022-08-30T15:13:37.762Z,97.74
2022-08-30T15:16:42.916Z,97.81
2022-08-30T15:19:49.365Z,97.99
2022-08-30T15:22:54.701Z,99.05
2022-08-30T15:25:59.587Z,98.99
2022-08-30T15:29:04.774Z,99.41
2022-08-30T15:32:09.273Z,100.00
2022-08-30T15:35:13.945Z,100.00
2022-08-30T15:38:19.358Z,100.00
2022-08-30T15:41:26.899Z,100.00
2022-08-30T15:44:34.266Z,100.00
2022-08-30T15:47:39.332Z,100.00
2022-08-30T15:50:45.084Z,99.68
2022-08-30T15:53:50.213Z,99.76
2022-08-30T15:57:00.018Z,99.63
2022-08-30T16:00:07.577Z,99.23
2022-08-30T16:03:14.918Z,98.54
2022-08-30T16:06:22.086Z,98.44
2022-08-30T16:09:32.337Z,98.37
2022-08-30T16:12:37.456Z,97.90
2022-08-30T16:15:42.367Z,98.19
2022-08-30T16:18:46.978Z,98.10
2022-08-30T16:21:59.724Z,98.08
2022-08-30T16:25:06.992Z,97.61
2022-08-30T16:28:11.531Z,97.83
2022-08-30T16:31:18.202Z,98.37
2022-08-30T16:34:23.225Z,99.00
2022-08-30T16:37:30.959Z,99.54
2022-08-30T16:40:36.461Z,99.79
2022-08-30T16:43:41.889Z,99.77
2022-08-30T16:46:53.223Z,99.77
2022-08-30T16:50:01.306Z,98.86
2022-08-30T16:53:08.298Z,99.16
2022-08-30T16:56:20.509Z,98.86
2022-08-30T16:59:25.944Z,98.24
2022-08-30T17:02:31.067Z,100.00
2022-08-30T17:05:40.909Z,99.94
2022-08-30T17:08:46.796Z,99.97
2022-08-30T17:11:51.699Z,99.49
2022-08-30T17:14:56.864Z,99.87
2022-08-30T17:18:01.771Z,98.50
2022-08-30T17:21:07.090Z,98.21
2022-08-30T17:24:12.200Z,98.65
2022-08-30T17:27:16.901Z,98.80
2022-08-30T17:30:21.689Z,98.85
2022-08-30T17:33:26.600Z,99.20
2022-08-30T17:36:31.019Z,99.00
2022-08-30T17:39:35.955Z,98.52
2022-08-30T17:42:41.382Z,98.96
2022-08-30T17:45:47.564Z,99.19
2022-08-30T17:48:57.800Z,99.59
2022-08-30T17:52:06.407Z,99.79
2022-08-30T17:55:11.874Z,100.00
2022-08-30T17:58:16.509Z,100.00
2022-08-30T18:01:22.997Z,100.00
2022-08-30T18:04:29.062Z,100.00
2022-08-30T18:07:34.174Z,100.00
2022-08-30T18:10:38.752Z,99.93
2022-08-30T18:13:43.346Z,99.14
2022-08-30T18:16:53.812Z,98.28
2022-08-30T18:19:59.560Z,98.39
2022-08-30T18:23:07.382Z,99.13
2022-08-30T18:26:14.580Z,99.46
2022-08-30T18:29:30.203Z,99.05
2022-08-30T18:32:38.344Z,98.90
2022-08-30T18:35:48.225Z,100.00
2022-08-30T18:38:53.305Z,99.99
2022-08-30T18:41:58.147Z,99.78
2022-08-30T18:45:14.588Z,100.00
2022-08-30T18:48:20.285Z,100.00
2022-08-30T18:51:25.070Z,100.00
2022-08-30T18:54:30.606Z,100.00
2022-08-30T18:57:35.261Z,100.00
2022-08-30T19:00:40.368Z,100.00
2022-08-30T19:03:45.308Z,100.00
2022-08-30T19:06:50.831Z,100.00
2022-08-30T19:09:55.345Z,100.00
2022-08-30T19:13:04.372Z,100.00
2022-08-30T19:16:12.024Z,100.00
2022-08-30T19:19:17.975Z,100.00
2022-08-30T19:22:27.424Z,100.00
2022-08-30T19:25:35.245Z,100.00
2022-08-30T19:28:42.678Z,100.00
2022-08-30T19:31:47.242Z,99.79
2022-08-30T19:34:51.741Z,100.00
2022-08-30T19:37:58.143Z,100.00
2022-08-30T19:41:03.393Z,100.00
2022-08-30T19:44:08.631Z,100.00
2022-08-30T19:47:40.091Z,100.00
2022-08-30T19:50:54.805Z,100.00
2022-08-30T19:53:59.459Z,100.00
2022-08-30T19:57:04.805Z,100.00
2022-08-30T20:00:12.812Z,100.00
2022-08-30T20:03:21.644Z,100.00
2022-08-30T20:06:26.099Z,100.00
2022-08-30T20:09:30.715Z,100.00
2022-08-30T20:12:37.027Z,100.00
2022-08-30T20:15:42.523Z,100.00
2022-08-30T20:18:49.758Z,100.00
2022-08-30T20:21:54.437Z,100.00
2022-08-30T20:25:03.764Z,100.00
2022-08-30T20:28:15.645Z,100.00
2022-08-30T20:31:20.729Z,100.00
2022-08-30T20:34:28.331Z,100.00
2022-08-30T20:37:34.080Z,100.00
2022-08-30T20:40:40.809Z,100.00
2022-08-30T20:43:46.493Z,100.00
2022-08-30T20:46:51.580Z,100.00
2022-08-30T20:49:56.292Z,100.00
2022-08-30T20:53:01.313Z,100.00
2022-08-30T20:56:06.651Z,100.00
2022-08-30T20:59:11.359Z,100.00
2022-08-30T21:02:16.175Z,100.00
2022-08-30T21:05:20.808Z,100.00
2022-08-30T21:08:26.215Z,100.00
2022-08-30T21:11:30.774Z,100.00
2022-08-30T21:14:35.470Z,100.00
2022-08-30T21:17:40.204Z,100.00
2022-08-30T21:20:47.050Z,100.00
2022-08-30T21:23:57.930Z,100.00
2022-08-30T21:27:02.693Z,100.00
2022-08-30T21:30:07.940Z,100.00
2022-08-30T21:33:12.527Z,100.00
2022-08-30T21:36:36.993Z,100.00
2022-08-30T21:39:41.597Z,99.64
2022-08-30T21:42:48.644Z,99.97
2022-08-30T21:45:54.336Z,99.35
2022-08-30T21:49:02.243Z,99.36
2022-08-30T21:52:06.888Z,98.47
2022-08-30T21:55:11.954Z,98.24
2022-08-30T21:58:17.009Z,98.99
2022-08-30T22:01:26.951Z,98.72
2022-08-30T22:04:31.642Z,98.68
2022-08-30T22:07:38.206Z,98.60
2022-08-30T22:10:45.576Z,97.91
2022-08-30T22:13:52.747Z,99.04
2022-08-30T22:16:57.544Z,98.68
2022-08-30T22:20:02.129Z,98.64
2022-08-30T22:23:07.311Z,93.74
2022-08-30T22:26:14.620Z,93.27
2022-08-30T22:29:19.248Z,94.02
2022-08-30T22:32:23.963Z,94.23
2022-08-30T22:35:28.698Z,93.69
2022-08-30T22:38:33.236Z,93.60
2022-08-30T22:41:38.820Z,93.61
2022-08-30T22:44:43.278Z,91.31
2022-08-30T22:47:48.410Z,92.72
2022-08-30T22:50:53.364Z,92.67
2022-08-30T22:53:57.907Z,90.73
2022-08-30T22:57:04.468Z,91.58
2022-08-30T23:00:20.262Z,90.48
2022-08-30T23:03:24.715Z,90.59
2022-08-30T23:06:30.117Z,90.71
2022-08-30T23:09:34.913Z,89.81
2022-08-30T23:12:40.249Z,89.70
2022-08-30T23:15:44.685Z,90.45
2022-08-30T23:18:49.903Z,90.07
2022-08-30T23:21:54.276Z,90.10
2022-08-30T23:25:18.183Z,89.02
2022-08-30T23:28:41.352Z,87.84
2022-08-30T23:32:04.401Z,87.06
2022-08-30T23:35:30.549Z,87.52
2022-08-30T23:38:52.956Z,88.53
2022-08-30T23:42:15.674Z,88.63
2022-08-30T23:45:38.548Z,87.98
2022-08-30T23:49:01.342Z,86.98
2022-08-30T23:52:24.469Z,86.56
2022-08-30T23:55:47.666Z,85.52
2022-08-30T23:59:10.543Z,84.63
